Time;durP1;ratioP1;P1;durP2;ratioP2;P2;SDS_P1;SDS_P2;PMS_P1;PMS_P2;Temp;Humidity;BMP_temperature;BMP_pressure;BME280_temperature;BME280_humidity;BME280_pressure;Samples;Min_cycle;Max_cycle;Signal;HPM_P1;HPM_P2
2022/03/03 00:00:08;;;;;;;2.25;1.02;;;24.60;81.20;;;;;;5083908;23;20017;-65
2022/03/03 00:02:31;;;;;;;3.30;1.00;;;24.60;81.20;;;;;;5078692;23;20099;-65
2022/03/03 00:04:53;;;;;;;1.63;0.80;;;24.70;81.20;;;;;;5078428;23;20377;-66
2022/03/03 00:07:16;;;;;;;1.67;0.70;;;24.70;81.20;;;;;;5054465;23;20017;-63
2022/03/03 00:09:38;;;;;;;2.38;0.93;;;24.70;81.40;;;;;;5074927;23;20095;-66
2022/03/03 00:12:01;;;;;;;3.17;1.15;;;24.70;81.10;;;;;;5076731;23;20067;-67
2022/03/03 00:14:23;;;;;;;1.77;0.82;;;24.70;81.20;;;;;;5084604;23;20171;-65
2022/03/03 00:16:46;;;;;;;1.35;0.80;;;24.70;81.10;;;;;;5069435;23;20607;-66
2022/03/03 00:19:08;;;;;;;6.82;0.90;;;24.80;81.10;;;;;;5078591;23;20413;-66
2022/03/03 00:21:31;;;;;;;0.98;0.68;;;24.80;81.10;;;;;;5082698;23;20021;-65
2022/03/03 00:23:54;;;;;;;2.88;0.90;;;24.80;81.10;;;;;;5071901;23;20024;-70
2022/03/03 00:26:16;;;;;;;2.65;0.80;;;24.80;81.00;;;;;;5077025;23;20155;-67
2022/03/03 00:28:39;;;;;;;1.40;0.90;;;24.80;80.80;;;;;;5052097;23;20564;-69
2022/03/03 00:31:03;;;;;;;1.80;0.70;;;24.80;80.70;;;;;;5080224;23;20024;-68
2022/03/03 00:33:25;;;;;;;;;;;24.90;80.80;;;;;;5080419;23;20096;-67
2022/03/03 00:35:48;;;;;;;0.50;0.40;;;24.90;80.80;;;;;;5072104;23;19943;-68
2022/03/03 00:38:11;;;;;;;3.58;0.80;;;24.90;80.70;;;;;;5082943;23;20025;-64
2022/03/03 00:40:34;;;;;;;3.60;1.20;;;24.90;80.60;;;;;;5078663;23;20453;-65
2022/03/03 00:42:57;;;;;;;4.43;0.80;;;25.00;80.70;;;;;;5080411;23;20407;-63
2022/03/03 00:45:20;;;;;;;2.38;0.63;;;25.00;80.60;;;;;;5082779;23;20016;-65
2022/03/03 00:47:42;;;;;;;1.88;0.70;;;25.00;80.50;;;;;;5077592;23;20049;-66
2022/03/03 00:50:06;;;;;;;1.20;0.50;;;25.00;80.60;;;;;;5082247;23;20123;-65
2022/03/03 00:52:29;;;;;;;1.70;0.60;;;25.00;80.50;;;;;;5081442;23;20107;-65
2022/03/03 00:54:51;;;;;;;1.42;0.52;;;25.10;80.50;;;;;;5079002;23;20024;-70
2022/03/03 00:57:14;;;;;;;0.75;0.60;;;25.10;80.40;;;;;;5071199;23;20013;-67
2022/03/03 00:59:37;;;;;;;2.63;0.70;;;25.10;80.40;;;;;;5084787;23;20104;-64
2022/03/03 01:01:59;;;;;;;0.73;0.50;;;25.10;80.40;;;;;;5077656;23;20012;-64
2022/03/03 01:04:22;;;;;;;1.13;0.60;;;25.10;80.40;;;;;;5080171;23;20095;-66
2022/03/03 01:06:45;;;;;;;1.08;0.65;;;25.10;80.30;;;;;;5083319;23;20016;-62
2022/03/03 01:09:08;;;;;;;2.05;0.60;;;25.10;80.30;;;;;;5079039;23;20029;-64
2022/03/03 01:11:30;;;;;;;3.22;0.82;;;25.10;80.30;;;;;;5080160;23;20016;-63
2022/03/03 01:13:53;;;;;;;2.03;0.82;;;25.20;80.20;;;;;;5085620;23;20500;-62
2022/03/03 01:16:15;;;;;;;6.78;1.58;;;25.20;80.30;;;;;;5077492;23;20071;-70
2022/03/03 01:18:38;;;;;;;10.45;1.70;;;25.20;80.10;;;;;;5077828;23;20179;-69
2022/03/03 01:21:00;;;;;;;8.75;1.20;;;25.20;80.10;;;;;;5083068;23;20292;-69
2022/03/03 01:23:22;;;;;;;6.47;1.70;;;25.20;80.20;;;;;;5081278;23;20181;-69
2022/03/03 01:25:45;;;;;;;5.10;1.60;;;25.20;80.20;;;;;;5084144;23;20105;-68
2022/03/03 01:28:08;;;;;;;7.00;1.65;;;25.10;80.10;;;;;;5086901;23;20029;-68
2022/03/03 01:30:30;;;;;;;3.88;1.20;;;25.10;80.00;;;;;;5081000;23;20020;-68
2022/03/03 01:32:53;;;;;;;3.67;1.38;;;25.10;79.90;;;;;;5073939;23;20365;-68
2022/03/03 01:35:15;;;;;;;5.18;1.42;;;25.10;80.00;;;;;;5088544;23;20783;-68
2022/03/03 01:37:37;;;;;;;5.57;1.63;;;25.10;80.00;;;;;;5084510;23;20017;-69
2022/03/03 01:40:00;;;;;;;5.57;1.45;;;25.10;80.00;;;;;;5082963;23;20511;-68
2022/03/03 01:42:22;;;;;;;4.90;1.60;;;25.10;80.00;;;;;;5085786;23;20009;-68
2022/03/03 01:44:46;;;;;;;3.63;1.25;;;25.10;80.00;;;;;;5085294;23;20013;-69
2022/03/03 01:47:17;;;;;;;5.25;1.17;;;25.10;80.00;;;;;;5082219;23;20017;-68
2022/03/03 01:49:39;;;;;;;5.30;1.65;;;25.10;80.10;;;;;;5088818;23;20108;-68
2022/03/03 01:52:02;;;;;;;6.80;1.30;;;25.10;80.00;;;;;;5080365;23;20039;-68
2022/03/03 01:54:24;;;;;;;2.50;1.20;;;25.00;80.30;;;;;;5084130;23;20140;-68
2022/03/03 01:56:47;;;;;;;5.40;1.15;;;25.00;80.20;;;;;;5090402;23;20561;-68
2022/03/03 01:59:10;;;;;;;7.53;1.70;;;25.10;80.20;;;;;;5085072;23;20169;-69
2022/03/03 02:01:33;;;;;;;4.53;1.02;;;25.10;80.20;;;;;;5085185;23;20250;-68
2022/03/03 02:03:55;;;;;;;2.65;0.95;;;25.10;80.30;;;;;;5087228;23;20028;-69
2022/03/03 02:06:18;;;;;;;6.00;1.30;;;25.10;80.40;;;;;;5084540;23;20059;-68
2022/03/03 02:08:40;;;;;;;4.03;1.30;;;25.10;80.50;;;;;;5085101;23;20135;-68
2022/03/03 02:11:03;;;;;;;5.68;1.25;;;25.00;80.40;;;;;;5088110;23;20055;-68
2022/03/03 02:13:25;;;;;;;4.50;1.63;;;25.00;80.50;;;;;;5085495;23;20020;-69
2022/03/03 02:15:52;;;;;;;4.78;1.30;;;25.10;80.70;;;;;;5085934;23;20009;-67
2022/03/03 02:18:15;;;;;;;3.85;1.40;;;25.10;80.60;;;;;;5093006;23;20032;-69
2022/03/03 02:20:37;;;;;;;6.07;1.80;;;25.00;80.70;;;;;;5076656;23;20013;-68
2022/03/03 02:22:59;;;;;;;4.25;1.23;;;25.10;80.70;;;;;;5086443;23;20747;-69
2022/03/03 02:25:23;;;;;;;2.83;1.10;;;25.10;80.70;;;;;;5091852;23;20032;-68
2022/03/03 02:27:46;;;;;;;5.70;1.80;;;25.10;80.80;;;;;;5086694;23;20025;-68
2022/03/03 02:30:10;;;;;;;5.80;1.52;;;25.10;80.90;;;;;;5086662;23;20064;-68
2022/03/03 02:32:32;;;;;;;4.90;1.67;;;25.00;80.80;;;;;;5092263;23;20020;-68
2022/03/03 02:34:55;;;;;;;5.80;1.80;;;25.00;80.90;;;;;;5084013;23;20013;-68
2022/03/03 02:37:17;;;;;;;6.18;1.58;;;25.10;81.00;;;;;;5086537;23;20012;-68
2022/03/03 02:39:41;;;;;;;7.93;2.20;;;25.10;80.90;;;;;;5089949;23;20116;-68
2022/03/03 02:42:04;;;;;;;3.50;1.40;;;25.00;80.80;;;;;;5084764;23;20027;-69
2022/03/03 02:44:26;;;;;;;6.35;1.77;;;25.00;80.90;;;;;;5086282;23;20017;-69
2022/03/03 02:46:48;;;;;;;4.78;1.48;;;25.10;80.90;;;;;;5088403;23;20029;-68
2022/03/03 02:49:11;;;;;;;5.82;1.15;;;25.00;80.90;;;;;;5087537;23;20416;-68
2022/03/03 02:51:33;;;;;;;3.72;1.38;;;25.00;80.90;;;;;;5085592;23;20442;-68
2022/03/03 02:53:56;;;;;;;4.38;1.50;;;25.10;80.90;;;;;;5091000;23;20201;-68
2022/03/03 02:56:18;;;;;;;4.38;1.20;;;25.00;81.00;;;;;;5079393;23;20112;-68
2022/03/03 02:58:41;;;;;;;4.80;1.52;;;25.00;81.10;;;;;;5082799;23;20139;-67
2022/03/03 03:01:05;;;;;;;4.32;1.35;;;25.00;81.10;;;;;;5085276;23;20156;-67
2022/03/03 03:03:28;;;;;;;2.15;1.02;;;25.00;81.10;;;;;;5085695;23;20044;-67
2022/03/03 03:05:50;;;;;;;5.18;1.45;;;25.00;81.20;;;;;;5077741;23;20013;-68
2022/03/03 03:08:13;;;;;;;3.67;1.33;;;25.00;81.50;;;;;;5085428;23;20942;-63
2022/03/03 03:10:36;;;;;;;4.72;1.23;;;25.00;81.40;;;;;;5056634;23;20429;-62
2022/03/03 03:12:59;;;;;;;3.33;1.33;;;25.00;81.50;;;;;;5073393;23;20017;-65
2022/03/03 03:15:22;;;;;;;4.65;1.98;;;25.00;81.90;;;;;;5056578;23;20214;-64
2022/03/03 03:17:45;;;;;;;7.07;2.22;;;25.00;81.80;;;;;;5087180;23;20090;-61
2022/03/03 03:20:08;;;;;;;2.90;1.17;;;25.00;82.70;;;;;;5077677;23;20080;-61
2022/03/03 03:22:30;;;;;;;3.67;1.27;;;25.00;83.00;;;;;;5079887;23;21180;-63
2022/03/03 03:24:53;;;;;;;6.80;2.10;;;25.00;83.20;;;;;;5084943;23;20909;-63
2022/03/03 03:27:15;;;;;;;4.93;2.20;;;25.10;83.50;;;;;;5081285;23;20023;-63
2022/03/03 03:29:38;;;;;;;5.47;1.73;;;25.10;83.50;;;;;;5084571;23;20189;-63
2022/03/03 03:32:00;;;;;;;4.22;1.70;;;25.10;83.50;;;;;;5090028;23;20668;-62
2022/03/03 03:34:23;;;;;;;3.40;1.52;;;25.10;84.10;;;;;;5080311;23;20016;-61
2022/03/03 03:36:45;;;;;;;4.30;1.50;;;25.20;83.50;;;;;;5080892;23;20017;-66
2022/03/03 03:39:08;;;;;;;3.92;1.30;;;25.20;83.30;;;;;;5058944;23;20028;-62
2022/03/03 03:41:30;;;;;;;4.22;1.60;;;25.30;83.30;;;;;;5081765;23;20692;-63
2022/03/03 03:43:53;;;;;;;2.95;1.27;;;25.20;83.20;;;;;;5083784;23;20027;-61
2022/03/03 03:46:15;;;;;;;7.53;1.40;;;25.30;83.10;;;;;;5086265;23;20130;-59
2022/03/03 03:48:37;;;;;;;3.78;1.38;;;25.30;83.00;;;;;;5082413;23;20035;-64
2022/03/03 03:51:00;;;;;;;5.00;1.38;;;25.30;83.00;;;;;;5051500;23;20021;-67
2022/03/03 03:53:23;;;;;;;3.72;1.42;;;25.40;82.80;;;;;;5087618;23;20054;-65
2022/03/03 03:55:46;;;;;;;8.60;1.58;;;25.40;82.70;;;;;;5086339;23;20027;-64
2022/03/03 03:58:08;;;;;;;4.18;1.20;;;25.40;82.90;;;;;;5085640;23;20021;-63
2022/03/03 04:00:31;;;;;;;3.45;1.15;;;25.40;83.10;;;;;;5089639;23;20047;-66
2022/03/03 04:02:53;;;;;;;4.18;1.48;;;25.40;83.00;;;;;;5087934;23;20029;-67
2022/03/03 04:05:16;;;;;;;3.22;1.00;;;25.40;83.10;;;;;;5074502;23;20698;-62
2022/03/03 04:07:40;;;;;;;4.15;1.52;;;25.50;83.10;;;;;;5086518;23;20277;-60
2022/03/03 04:10:03;;;;;;;3.95;1.65;;;25.50;83.10;;;;;;5086486;23;20119;-61
2022/03/03 04:12:25;;;;;;;3.33;1.20;;;25.60;83.00;;;;;;5048506;23;20017;-63
2022/03/03 04:14:48;;;;;;;5.65;1.35;;;25.70;83.00;;;;;;5085767;23;20569;-64
2022/03/03 04:17:11;;;;;;;5.30;1.33;;;25.70;83.00;;;;;;5082563;23;20468;-64
2022/03/03 04:19:33;;;;;;;2.55;1.17;;;25.70;83.00;;;;;;5080778;23;20061;-64
2022/03/03 04:21:56;;;;;;;2.92;1.33;;;25.70;82.80;;;;;;5083513;23;20172;-64
2022/03/03 04:24:18;;;;;;;1.98;1.02;;;25.80;82.90;;;;;;5087458;23;20071;-64
2022/03/03 04:26:41;;;;;;;5.68;1.23;;;25.80;82.80;;;;;;5083111;23;20480;-61
2022/03/03 04:29:04;;;;;;;3.05;1.27;;;25.80;82.80;;;;;;5083103;23;20029;-61
2022/03/03 04:31:27;;;;;;;3.03;1.00;;;25.80;82.80;;;;;;5079814;23;20024;-63
2022/03/03 04:33:50;;;;;;;2.03;1.00;;;25.80;82.70;;;;;;5082231;23;20032;-64
2022/03/03 04:36:14;;;;;;;2.95;1.38;;;25.80;82.70;;;;;;5086058;23;20013;-67
2022/03/03 04:38:36;;;;;;;4.18;1.40;;;25.90;82.70;;;;;;5089919;23;20027;-62
2022/03/03 04:40:59;;;;;;;2.85;1.42;;;26.00;82.70;;;;;;5083874;23;20020;-63
2022/03/03 04:43:21;;;;;;;6.68;1.30;;;26.00;82.50;;;;;;5083470;23;21082;-63
2022/03/03 04:45:44;;;;;;;5.45;1.17;;;26.00;82.40;;;;;;5079323;23;20037;-64
2022/03/03 04:48:08;;;;;;;4.07;1.27;;;26.10;82.50;;;;;;5081328;23;20025;-66
2022/03/03 04:50:30;;;;;;;4.90;1.20;;;26.00;82.40;;;;;;5075868;23;20013;-66
2022/03/03 04:52:53;;;;;;;3.17;0.90;;;26.10;82.40;;;;;;5089069;23;20033;-66
2022/03/03 04:55:15;;;;;;;3.92;1.30;;;26.10;82.30;;;;;;5083471;23;20099;-68
2022/03/03 04:57:38;;;;;;;2.90;0.90;;;26.10;82.20;;;;;;5083519;23;20320;-63
2022/03/03 05:00:00;;;;;;;1.63;0.88;;;26.10;82.20;;;;;;5088488;23;20311;-66
2022/03/03 05:02:23;;;;;;;2.85;1.10;;;26.10;82.10;;;;;;5082493;23;20536;-67
2022/03/03 05:04:45;;;;;;;2.53;1.02;;;26.20;82.20;;;;;;5081021;23;20023;-65
2022/03/03 05:07:08;;;;;;;3.70;1.13;;;26.20;82.10;;;;;;5085890;23;20096;-69
2022/03/03 05:09:30;;;;;;;4.25;1.20;;;26.20;82.10;;;;;;5083556;23;20357;-64
2022/03/03 05:11:53;;;;;;;3.83;1.13;;;26.20;82.20;;;;;;5079233;23;20028;-65
2022/03/03 05:14:15;;;;;;;3.75;1.10;;;26.30;82.10;;;;;;5088192;23;20021;-67
2022/03/03 05:16:38;;;;;;;2.90;1.08;;;26.30;81.80;;;;;;5081837;23;20321;-65
2022/03/03 05:19:01;;;;;;;3.22;1.00;;;26.30;82.00;;;;;;5083478;23;20012;-64
2022/03/03 05:21:23;;;;;;;3.65;0.98;;;26.40;81.90;;;;;;5085091;23;20020;-64
2022/03/03 05:23:46;;;;;;;3.53;1.13;;;26.40;82.10;;;;;;5085841;23;20048;-63
2022/03/03 05:26:08;;;;;;;4.03;1.20;;;26.50;82.10;;;;;;5073305;23;20021;-63
2022/03/03 05:28:31;;;;;;;5.03;1.50;;;26.50;81.90;;;;;;5084541;23;20055;-65
2022/03/03 05:30:53;;;;;;;4.68;1.40;;;26.50;81.40;;;;;;5087539;23;20032;-63
2022/03/03 05:33:16;;;;;;;4.38;1.05;;;26.50;81.70;;;;;;5084805;23;20588;-65
2022/03/03 05:35:40;;;;;;;4.97;1.42;;;26.60;81.80;;;;;;5082669;23;20329;-69
2022/03/03 05:38:03;;;;;;;5.22;1.52;;;26.60;81.80;;;;;;5084742;23;20383;-63
2022/03/03 05:40:26;;;;;;;2.42;0.77;;;26.60;81.80;;;;;;5084051;23;20684;-67
2022/03/03 05:42:48;;;;;;;3.50;1.15;;;26.60;81.70;;;;;;5085319;23;20020;-66
2022/03/03 05:45:11;;;;;;;2.78;0.90;;;26.60;81.70;;;;;;5086046;23;20019;-62
2022/03/03 05:47:34;;;;;;;3.08;1.13;;;26.60;81.60;;;;;;5081706;23;20071;-67
2022/03/03 05:49:59;;;;;;;3.80;1.02;;;26.60;81.80;;;;;;5083840;23;20021;-63
2022/03/03 05:52:21;;;;;;;2.47;0.90;;;26.60;81.70;;;;;;5080915;23;20017;-66
2022/03/03 05:54:44;;;;;;;3.80;1.00;;;26.60;81.80;;;;;;5066352;23;20075;-64
2022/03/03 05:57:18;;;;;;;3.15;0.98;;;26.60;81.60;;;;;;5076565;23;20836;-61
2022/03/03 05:59:44;;;;;;;3.42;0.90;;;26.60;81.40;;;;;;5078208;23;20160;-67
2022/03/03 06:02:08;;;;;;;1.95;0.90;;;26.60;81.40;;;;;;5080410;23;20017;-64
2022/03/03 06:04:33;;;;;;;4.07;1.33;;;26.60;81.40;;;;;;5078061;23;20048;-63
2022/03/03 06:07:06;;;;;;;2.97;1.00;;;26.60;81.40;;;;;;5081611;23;20361;-66
2022/03/03 06:09:33;;;;;;;2.60;1.17;;;26.60;81.70;;;;;;5080716;23;20029;-65
2022/03/03 06:12:13;;;;;;;3.78;1.00;;;26.60;81.60;;;;;;5082190;23;20147;-66
2022/03/03 06:14:56;;;;;;;3.17;1.30;;;26.60;81.50;;;;;;5074587;23;20127;-67
2022/03/03 06:17:22;;;;;;;9.32;2.15;;;26.70;81.30;;;;;;5075431;23;20088;-63
2022/03/03 06:19:46;;;;;;;10.35;2.58;;;26.60;80.50;;;;;;5085521;23;20024;-64
2022/03/03 06:22:11;;;;;;;10.70;3.28;;;26.60;80.50;;;;;;5079941;23;20461;-64
2022/03/03 06:24:33;;;;;;;7.43;2.40;;;26.60;80.40;;;;;;5070377;23;20021;-65
2022/03/03 06:26:56;;;;;;;9.90;3.00;;;26.60;80.40;;;;;;5082910;23;20017;-67
2022/03/03 06:29:19;;;;;;;10.40;2.92;;;26.60;80.40;;;;;;5077390;23;20095;-64
2022/03/03 06:31:42;;;;;;;9.48;3.13;;;26.60;80.40;;;;;;5068121;23;20023;-66
2022/03/03 06:34:07;;;;;;;9.23;2.78;;;26.60;80.40;;;;;;5085114;23;20043;-65
2022/03/03 06:36:31;;;;;;;8.75;2.70;;;26.50;80.20;;;;;;5077920;23;20012;-63
2022/03/03 06:38:53;;;;;;;9.48;2.85;;;26.50;80.10;;;;;;5080787;23;20865;-66
2022/03/03 06:41:16;;;;;;;9.27;2.78;;;26.50;80.10;;;;;;5086200;23;20173;-66
2022/03/03 06:43:39;;;;;;;10.73;2.83;;;26.50;80.20;;;;;;5079532;23;20024;-65
2022/03/03 06:46:01;;;;;;;9.48;2.72;;;26.50;80.20;;;;;;4951101;23;3072068;-65
2022/03/03 06:48:24;;;;;;;10.52;2.65;;;26.50;80.60;;;;;;5087909;23;20032;-64
2022/03/03 06:50:50;;;;;;;9.52;2.95;;;26.50;80.40;;;;;;5070599;23;20337;-60
2022/03/03 06:53:13;;;;;;;8.88;3.28;;;26.50;80.70;;;;;;5083556;23;20103;-66
2022/03/03 06:55:38;;;;;;;9.27;3.20;;;26.50;80.70;;;;;;5087037;23;20083;-71
2022/03/03 06:58:00;;;;;;;8.05;3.42;;;26.60;81.00;;;;;;5083416;23;20070;-71
2022/03/03 07:00:27;;;;;;;12.15;4.15;;;26.60;80.70;;;;;;5082548;23;20024;-71
2022/03/03 07:02:52;;;;;;;13.32;4.55;;;26.60;80.40;;;;;;5087416;23;20017;-71
2022/03/03 07:05:18;;;;;;;11.25;3.92;;;26.60;80.20;;;;;;5085639;23;20393;-72
2022/03/03 07:07:43;;;;;;;10.05;3.72;;;26.60;80.20;;;;;;5091074;23;20448;-70
2022/03/03 07:10:06;;;;;;;9.75;3.22;;;26.60;80.20;;;;;;5084372;23;20528;-71
2022/03/03 07:12:30;;;;;;;11.63;3.80;;;26.50;79.90;;;;;;5082814;23;20056;-66
2022/03/03 07:14:53;;;;;;;10.43;3.67;;;26.50;80.00;;;;;;5084065;23;20238;-64
2022/03/03 07:17:33;;;;;;;7.20;2.85;;;26.50;80.80;;;;;;5068109;23;20125;-61
2022/03/03 07:20:05;;;;;;;8.23;2.90;;;26.40;81.10;;;;;;5079308;23;20047;-64
2022/03/03 07:22:38;;;;;;;7.32;2.88;;;26.40;81.40;;;;;;5084727;23;20021;-60
2022/03/03 07:25:09;;;;;;;5.50;2.73;;;26.40;81.80;;;;;;5078738;23;20040;-61
2022/03/03 07:27:33;;;;;;;8.23;2.70;;;26.40;82.00;;;;;;5081405;23;20311;-60
2022/03/03 07:30:06;;;;;;;7.97;2.42;;;26.40;82.10;;;;;;5078452;23;20417;-60
2022/03/03 07:32:55;;;;;;;5.75;2.22;;;26.40;82.20;;;;;;5084495;23;20028;-62
2022/03/03 07:35:20;;;;;;;5.38;2.03;;;26.40;82.80;;;;;;5079783;23;20021;-64
2022/03/03 07:38:05;;;;;;;6.50;2.30;;;26.40;82.30;;;;;;5079260;23;20123;-63
2022/03/03 07:40:32;;;;;;;4.95;1.80;;;26.40;82.30;;;;;;5078785;23;20025;-62
2022/03/03 07:42:57;;;;;;;6.57;2.38;;;26.30;82.30;;;;;;5073916;23;20017;-61
2022/03/03 07:45:19;;;;;;;4.55;2.08;;;26.40;82.30;;;;;;5075961;23;20778;-67
2022/03/03 07:47:42;;;;;;;5.93;2.00;;;26.40;82.30;;;;;;5078274;23;20039;-65
2022/03/03 07:50:06;;;;;;;5.47;1.55;;;26.40;82.40;;;;;;5084351;23;20021;-65
2022/03/03 07:52:28;;;;;;;4.13;1.60;;;26.40;82.40;;;;;;5067943;23;20465;-58
2022/03/03 07:54:51;;;;;;;5.53;1.85;;;26.30;82.20;;;;;;5078085;23;20020;-62
2022/03/03 07:57:16;;;;;;;4.55;1.67;;;26.40;82.40;;;;;;5082129;23;20044;-63
2022/03/03 07:59:41;;;;;;;3.20;1.13;;;26.40;82.50;;;;;;5079684;23;20012;-65
2022/03/03 08:02:06;;;;;;;3.58;1.30;;;26.40;82.50;;;;;;5083623;23;20060;-63
2022/03/03 08:04:31;;;;;;;6.93;1.77;;;26.40;82.50;;;;;;5077678;23;20436;-64
2022/03/03 08:06:57;;;;;;;4.55;1.52;;;26.30;82.40;;;;;;5077078;23;20104;-62
2022/03/03 08:09:21;;;;;;;5.00;1.70;;;26.30;82.40;;;;;;5083562;23;20067;-64
2022/03/03 08:11:46;;;;;;;4.22;1.42;;;26.30;82.30;;;;;;5077403;23;20105;-67
2022/03/03 08:14:10;;;;;;;7.13;1.55;;;26.30;82.40;;;;;;5082280;23;20700;-67
2022/03/03 08:16:38;;;;;;;5.28;1.30;;;26.30;82.50;;;;;;5080666;23;20362;-67
2022/03/03 08:19:03;;;;;;;4.63;1.75;;;26.30;82.40;;;;;;5047661;23;20866;-65
2022/03/03 08:21:26;;;;;;;4.07;1.33;;;26.30;82.50;;;;;;5084361;23;20021;-66
2022/03/03 08:23:49;;;;;;;6.43;1.35;;;26.30;82.50;;;;;;5079015;23;20072;-64
2022/03/03 08:26:13;;;;;;;4.38;1.80;;;26.30;82.70;;;;;;5079018;23;20397;-64
2022/03/03 08:28:35;;;;;;;5.20;1.58;;;26.30;82.80;;;;;;5082959;23;20044;-60
2022/03/03 08:31:02;;;;;;;4.28;1.50;;;26.30;82.80;;;;;;5073930;23;20683;-62
2022/03/03 08:33:50;;;;;;;4.80;1.48;;;26.30;82.80;;;;;;5072152;23;21030;-61
2022/03/03 08:36:29;;;;;;;5.10;1.65;;;26.30;82.70;;;;;;5053330;23;20108;-62
2022/03/03 08:38:53;;;;;;;4.40;1.50;;;26.20;82.60;;;;;;5079694;23;20032;-67
2022/03/03 08:41:15;;;;;;;;;;;26.30;82.70;;;;;;5114030;23;20253;-66
2022/03/03 08:43:45;;;;;;;4.47;1.65;;;26.20;82.80;;;;;;5125934;23;20227;-68
2022/03/03 08:46:08;;;;;;;6.72;2.88;;;26.20;82.60;;;;;;5130963;23;20078;-64
2022/03/03 08:48:33;;;;;;;5.85;2.40;;;26.30;82.80;;;;;;5128848;23;20081;-69
2022/03/03 08:50:56;;;;;;;6.32;2.47;;;26.20;82.80;;;;;;5129864;23;20963;-68
2022/03/03 08:53:18;;;;;;;5.47;2.30;;;26.30;83.00;;;;;;5106043;23;20020;-71
2022/03/03 08:55:41;;;;;;;5.00;2.20;;;26.30;83.00;;;;;;5130065;23;20020;-69
2022/03/03 08:58:05;;;;;;;3.70;2.15;;;26.40;83.00;;;;;;5131552;23;20020;-70
2022/03/03 09:00:30;;;;;;;5.18;2.30;;;26.40;83.00;;;;;;5135888;23;20024;-74
2022/03/03 09:03:11;;;;;;;4.15;2.40;;;26.40;82.80;;;;;;5101315;23;20373;-72
2022/03/03 09:05:34;;;;;;;6.45;2.55;;;26.40;82.80;;;;;;5129778;23;20035;-70
2022/03/03 09:07:57;;;;;;;4.90;2.03;;;26.40;82.60;;;;;;5130275;23;20054;-68
2022/03/03 09:10:20;;;;;;;4.15;2.20;;;26.40;82.50;;;;;;5134416;23;20244;-74
2022/03/03 09:12:42;;;;;;;4.65;1.92;;;26.50;82.60;;;;;;5132228;23;20027;-65
2022/03/03 09:15:07;;;;;;;3.97;2.08;;;26.50;82.50;;;;;;5130565;23;20016;-64
2022/03/03 09:17:30;;;;;;;3.60;1.95;;;26.50;82.30;;;;;;5134508;23;20585;-66
2022/03/03 09:19:56;;;;;;;6.35;1.77;;;26.50;82.30;;;;;;5128718;23;20019;-68
2022/03/03 09:22:19;;;;;;;3.85;2.00;;;26.50;82.30;;;;;;5131978;23;20036;-66
2022/03/03 09:24:41;;;;;;;4.53;1.73;;;26.50;82.20;;;;;;5135842;23;20020;-68
2022/03/03 09:27:04;;;;;;;3.33;2.08;;;26.60;82.40;;;;;;5131263;23;20060;-67
2022/03/03 09:29:28;;;;;;;5.00;2.10;;;26.60;82.40;;;;;;5133634;23;20016;-66
2022/03/03 09:31:51;;;;;;;4.07;1.70;;;26.60;82.30;;;;;;5138664;23;20027;-67
2022/03/03 09:34:14;;;;;;;6.60;2.10;;;26.60;82.20;;;;;;5076531;23;20033;-68
2022/03/03 09:36:36;;;;;;;4.35;1.42;;;26.60;82.10;;;;;;5096117;23;21025;-72
2022/03/03 09:38:59;;;;;;;5.15;1.80;;;26.60;82.10;;;;;;5113490;23;20580;-71
2022/03/03 09:41:21;;;;;;;5.13;1.88;;;26.60;82.00;;;;;;5105907;23;20020;-68
2022/03/03 09:43:45;;;;;;;6.97;1.47;;;26.60;82.00;;;;;;5108997;23;20119;-69
2022/03/03 09:46:07;;;;;;;3.88;1.80;;;26.60;81.90;;;;;;5112389;23;20012;-70
2022/03/03 09:48:32;;;;;;;1.75;1.40;;;26.60;81.80;;;;;;5105414;23;20445;-67
2022/03/03 09:50:54;;;;;;;2.88;1.45;;;26.60;81.80;;;;;;5105779;23;20085;-67
2022/03/03 09:53:18;;;;;;;3.58;1.27;;;26.60;81.80;;;;;;5111434;23;20036;-65
2022/03/03 09:55:42;;;;;;;3.03;1.73;;;26.60;81.70;;;;;;5074709;23;20024;-69
2022/03/03 09:58:06;;;;;;;;;;;26.70;81.60;;;;;;5106403;23;20012;-65
2022/03/03 10:00:33;;;;;;;3.65;1.70;;;26.70;81.50;;;;;;5111532;23;19912;-67
2022/03/03 10:03:08;;;;;;;3.63;1.60;;;26.70;81.60;;;;;;5095736;23;20044;-68
2022/03/03 10:05:45;;;;;;;2.80;1.50;;;26.70;81.60;;;;;;5106226;23;20562;-68
2022/03/03 10:08:11;;;;;;;3.15;1.33;;;26.70;81.60;;;;;;5110570;23;20056;-68
2022/03/03 10:10:35;;;;;;;2.83;1.33;;;26.70;81.50;;;;;;5106165;23;20025;-68
2022/03/03 10:12:58;;;;;;;4.18;1.45;;;26.70;81.50;;;;;;5107164;23;20040;-69
2022/03/03 10:15:26;;;;;;;2.90;1.50;;;26.70;81.40;;;;;;5111028;23;20016;-68
2022/03/03 10:17:48;;;;;;;4.97;1.40;;;26.70;81.40;;;;;;5097083;23;20760;-73
2022/03/03 10:20:11;;;;;;;4.78;1.73;;;26.70;81.30;;;;;;5115252;23;20027;-72
2022/03/03 10:22:57;;;;;;;7.57;1.95;;;26.70;81.20;;;;;;5110280;23;20120;-72
2022/03/03 10:25:39;;;;;;;3.58;1.60;;;26.70;81.20;;;;;;5110412;23;20099;-72
2022/03/03 10:28:19;;;;;;;2.80;1.85;;;26.70;81.00;;;;;;5078533;23;20077;-71
2022/03/03 10:31:00;;;;;;;2.78;1.50;;;26.70;81.00;;;;;;5115295;23;20024;-70
2022/03/03 10:33:25;;;;;;;3.58;1.80;;;26.70;80.90;;;;;;5120579;23;20008;-74
2022/03/03 10:36:06;;;;;;;4.68;1.60;;;26.70;81.20;;;;;;5118454;23;20055;-70
2022/03/03 10:38:30;;;;;;;4.10;1.52;;;26.70;81.30;;;;;;5123358;23;20028;-77
2022/03/03 10:40:52;;;;;;;;;;;26.60;81.40;;;;;;5116000;23;20035;-72
2022/03/03 10:43:17;;;;;;;2.67;1.70;;;26.60;81.40;;;;;;5108553;23;19940;-71
2022/03/03 10:45:57;;;;;;;2.95;1.40;;;26.60;81.40;;;;;;5115388;23;20644;-73
2022/03/03 10:48:28;;;;;;;5.25;1.70;;;26.60;81.60;;;;;;5118895;23;20094;-71
2022/03/03 10:51:00;;;;;;;3.22;1.40;;;26.60;81.50;;;;;;5113105;23;20016;-70
2022/03/03 10:53:26;;;;;;;2.63;1.40;;;26.60;81.50;;;;;;5086808;23;20099;-73
2022/03/03 10:56:26;;;;;;;2.30;1.48;;;26.60;81.50;;;;;;5114283;23;20405;-73
2022/03/03 10:59:01;;;;;;;2.38;1.60;;;26.60;81.40;;;;;;5108077;23;20020;-73
2022/03/03 11:01:30;;;;;;;2.33;1.50;;;26.60;81.40;;;;;;5117515;23;20013;-72
2022/03/03 11:03:54;;;;;;;2.45;1.60;;;26.50;81.10;;;;;;5085827;23;20017;-74
2022/03/03 11:06:28;;;;;;;3.60;1.70;;;26.50;80.10;;;;;;5116849;23;20021;-73
2022/03/03 11:08:53;;;;;;;5.35;2.00;;;26.50;79.50;;;;;;5119402;23;20099;-72
2022/03/03 11:11:16;;;;;;;6.22;2.10;;;26.40;79.30;;;;;;5117913;23;20005;-64
2022/03/03 11:13:40;;;;;;;10.52;2.50;;;26.40;79.40;;;;;;5118184;23;20012;-65
2022/03/03 11:16:04;;;;;;;6.22;2.17;;;26.40;79.90;;;;;;5114541;23;20012;-68
2022/03/03 11:18:36;;;;;;;6.90;1.95;;;26.40;80.20;;;;;;5106762;23;20470;-71
2022/03/03 11:21:08;;;;;;;6.18;2.13;;;26.40;80.50;;;;;;5114466;23;20013;-64
2022/03/03 11:24:00;;;;;;;6.20;2.20;;;26.40;80.70;;;;;;5088866;23;20017;-65
2022/03/03 11:26:33;;;;;;;5.18;2.05;;;26.30;80.70;;;;;;5112811;23;20023;-65
2022/03/03 11:29:11;;;;;;;4.60;1.50;;;26.30;80.90;;;;;;5119396;23;20020;-72
2022/03/03 11:31:37;;;;;;;4.03;1.77;;;26.30;81.00;;;;;;5117401;23;20020;-71
2022/03/03 11:34:21;;;;;;;4.00;1.65;;;26.30;81.10;;;;;;5118910;23;20028;-71
2022/03/03 11:36:48;;;;;;;3.42;1.40;;;26.30;81.20;;;;;;5090216;23;20358;-71
2022/03/03 11:39:59;;;;;;;4.45;1.70;;;26.30;81.40;;;;;;5120082;23;20452;-73
2022/03/03 11:42:39;;;;;;;2.97;1.55;;;26.30;81.80;;;;;;5078785;23;20021;-73
2022/03/03 11:45:08;;;;;;;2.55;1.65;;;26.30;81.90;;;;;;5123410;23;20166;-71
2022/03/03 11:48:07;;;;;;;2.88;1.90;;;26.30;81.80;;;;;;5114728;23;20012;-70
2022/03/03 11:50:30;;;;;;;17.02;1.73;;;26.20;81.90;;;;;;5118242;23;20040;-67
2022/03/03 11:53:04;;;;;;;3.03;1.35;;;26.20;81.90;;;;;;5115458;23;20095;-69
2022/03/03 11:55:49;;;;;;;3.58;1.42;;;26.20;81.90;;;;;;5088176;23;20017;-71
2022/03/03 11:58:35;;;;;;;3.40;1.77;;;26.20;81.80;;;;;;5122055;23;20076;-75
2022/03/03 12:01:08;;;;;;;3.88;1.42;;;26.20;81.90;;;;;;5111449;23;20044;-74
2022/03/03 12:04:13;;;;;;;3.08;1.40;;;26.20;82.00;;;;;;5111626;23;20241;-74
2022/03/03 12:06:47;;;;;;;3.25;1.33;;;26.20;81.90;;;;;;5114660;23;20012;-72
2022/03/03 12:09:38;;;;;;;3.30;1.48;;;26.20;81.90;;;;;;5089099;23;20024;-68
2022/03/03 12:12:22;;;;;;;2.35;1.55;;;26.20;81.80;;;;;;5117685;23;20730;-67
2022/03/03 12:15:05;;;;;;;6.65;1.90;;;26.10;81.80;;;;;;5109737;23;20021;-68
2022/03/03 12:17:46;;;;;;;4.40;1.55;;;26.20;82.00;;;;;;5119532;23;20017;-73
2022/03/03 12:20:30;;;;;;;5.93;1.75;;;26.20;82.00;;;;;;5108947;23;20013;-73
2022/03/03 12:23:09;;;;;;;11.45;2.20;;;26.10;82.00;;;;;;5082290;23;20919;-66
2022/03/03 12:25:55;;;;;;;7.00;1.63;;;26.10;82.10;;;;;;5112342;23;20565;-68
2022/03/03 12:28:24;;;;;;;6.13;1.38;;;26.10;82.00;;;;;;5082507;23;21041;-67
2022/03/03 12:30:51;;;;;;;4.47;1.38;;;26.10;82.10;;;;;;5084713;23;20049;-68
2022/03/03 12:33:54;;;;;;;8.35;1.38;;;26.10;82.20;;;;;;5115318;23;20008;-73
2022/03/03 12:36:16;;;;;;;8.80;2.00;;;26.10;82.30;;;;;;5108260;23;20085;-68
2022/03/03 12:38:42;;;;;;;12.27;1.90;;;26.10;82.30;;;;;;5117687;23;20016;-71
2022/03/03 12:41:05;;;;;;;5.00;1.17;;;26.00;82.20;;;;;;5121226;23;20043;-68